createdAt,value
2018-08-03T00:00:52.101Z,101525.02
2018-08-03T00:03:21.515Z,101529.09
2018-08-03T00:05:50.281Z,101527.41
2018-08-03T00:08:19.063Z,101521.66
2018-08-03T00:10:47.763Z,101523.08
2018-08-03T00:13:16.495Z,101525.78
2018-08-03T00:15:45.001Z,101525.36
2018-08-03T00:18:13.734Z,101525.40
2018-08-03T00:20:42.630Z,101521.48
2018-08-03T00:23:11.462Z,101522.46
2018-08-03T00:25:40.398Z,101519.84
2018-08-03T00:28:09.348Z,101509.71
2018-08-03T00:30:38.041Z,101516.45
2018-08-03T00:33:06.754Z,101521.39
2018-08-03T00:35:35.676Z,101522.34
2018-08-03T00:38:05.068Z,101522.88
2018-08-03T00:40:33.801Z,101510.05
2018-08-03T00:43:02.522Z,101517.12
2018-08-03T00:45:31.221Z,101515.80
2018-08-03T00:47:59.903Z,101515.45
2018-08-03T00:50:28.867Z,101507.91
2018-08-03T00:52:57.623Z,101504.37
2018-08-03T00:55:26.283Z,101511.08
2018-08-03T00:57:55.336Z,101515.52
2018-08-03T01:00:24.023Z,101513.35
2018-08-03T01:02:52.704Z,101522.30
2018-08-03T01:05:21.390Z,101528.56
2018-08-03T01:07:50.046Z,101540.17
2018-08-03T01:10:18.733Z,101540.66
2018-08-03T01:12:48.314Z,101538.10
2018-08-03T01:15:17.385Z,101542.17
2018-08-03T01:17:46.226Z,101535.55
2018-08-03T01:20:15.093Z,101540.06
2018-08-03T01:22:43.901Z,101532.98
2018-08-03T01:25:13.037Z,101532.18
2018-08-03T01:27:41.901Z,101538.38
2018-08-03T01:30:10.781Z,101536.14
2018-08-03T01:32:39.637Z,101536.95
2018-08-03T01:35:08.457Z,101535.44
2018-08-03T01:37:37.348Z,101535.78
2018-08-03T01:40:06.791Z,101535.23
2018-08-03T01:42:35.710Z,101537.25
2018-08-03T01:45:04.702Z,101539.46
2018-08-03T01:47:33.529Z,101539.39
2018-08-03T01:50:02.403Z,101540.23
2018-08-03T01:52:31.320Z,101532.23
2018-08-03T01:55:00.234Z,101529.98
2018-08-03T01:57:29.197Z,101531.36
2018-08-03T01:59:58.081Z,101539.81
2018-08-03T02:02:26.985Z,101536.73
2018-08-03T02:04:55.868Z,101536.19
2018-08-03T02:07:24.758Z,101531.63
2018-08-03T02:09:53.441Z,101531.94
2018-08-03T02:12:22.278Z,101537.16
2018-08-03T02:14:51.157Z,101536.13
2018-08-03T02:17:20.001Z,101541.84
2018-08-03T02:19:48.828Z,101546.22
2018-08-03T02:22:17.717Z,101551.06
2018-08-03T02:24:46.559Z,101551.48
2018-08-03T02:27:15.408Z,101550.52
2018-08-03T02:29:44.248Z,101548.73
2018-08-03T02:32:13.126Z,101545.19
2018-08-03T02:34:41.959Z,101545.16
2018-08-03T02:37:10.769Z,101547.36
2018-08-03T02:39:39.685Z,101546.95
2018-08-03T02:42:08.498Z,101546.07
2018-08-03T02:44:37.324Z,101547.41
2018-08-03T02:47:06.148Z,101541.16
2018-08-03T02:49:34.969Z,101545.08
2018-08-03T02:52:03.822Z,101545.05
2018-08-03T02:54:32.664Z,101544.59
2018-08-03T02:57:01.506Z,101549.46
2018-08-03T02:59:30.448Z,101548.05
2018-08-03T03:01:59.456Z,101546.30
2018-08-03T03:04:28.309Z,101552.05
2018-08-03T03:06:57.144Z,101552.05
2018-08-03T03:09:26.005Z,101554.75
2018-08-03T03:11:54.844Z,101553.84
2018-08-03T03:14:23.910Z,101547.21
2018-08-03T03:16:52.773Z,101546.80
2018-08-03T03:19:21.725Z,101547.70
2018-08-03T03:21:50.590Z,101545.92
2018-08-03T03:24:19.442Z,101553.95
2018-08-03T03:26:48.261Z,101549.50
2018-08-03T03:29:17.060Z,101549.50
2018-08-03T03:31:45.900Z,101547.82
2018-08-03T03:34:14.736Z,101553.61
2018-08-03T03:36:43.685Z,101555.81
2018-08-03T03:39:13.867Z,101551.40
2018-08-03T03:41:43.058Z,101550.11
2018-08-03T03:44:11.909Z,101546.60
2018-08-03T03:46:40.775Z,101548.05
2018-08-03T03:49:09.976Z,101545.92
2018-08-03T03:51:38.835Z,101560.58
2018-08-03T03:54:07.695Z,101552.20
2018-08-03T03:56:36.609Z,101549.91
2018-08-03T03:59:05.513Z,101552.13
2018-08-03T04:01:34.367Z,101555.20
2018-08-03T04:04:03.198Z,101553.42
2018-08-03T04:06:32.022Z,101550.75
2018-08-03T04:09:00.945Z,101560.95
2018-08-03T04:11:29.772Z,101554.37
2018-08-03T04:13:58.625Z,101548.73
2018-08-03T04:16:27.490Z,101543.09
2018-08-03T04:18:56.462Z,101553.41
2018-08-03T04:21:26.063Z,101546.43
2018-08-03T04:23:55.662Z,101546.96
2018-08-03T04:26:25.279Z,101548.33
2018-08-03T04:28:54.893Z,101549.27
2018-08-03T04:31:24.526Z,101546.65
2018-08-03T04:33:55.027Z,101544.90
2018-08-03T04:36:24.817Z,101549.98
2018-08-03T04:38:54.466Z,101551.53
2018-08-03T04:41:24.174Z,101558.36
2018-08-03T04:43:53.769Z,101560.01
2018-08-03T04:46:23.438Z,101558.92
2018-08-03T04:48:53.389Z,101569.44
2018-08-03T04:51:22.982Z,101566.86
2018-08-03T04:53:52.633Z,101567.41
2018-08-03T04:56:22.198Z,101578.44
2018-08-03T04:58:51.931Z,101576.64
2018-08-03T05:01:21.618Z,101577.61
2018-08-03T05:03:51.289Z,101579.00
2018-08-03T05:06:20.955Z,101584.91
2018-08-03T05:08:50.540Z,101582.33
2018-08-03T05:11:19.484Z,101578.07
2018-08-03T05:13:48.301Z,101581.41
2018-08-03T05:16:17.143Z,101578.94
2018-08-03T05:18:46.067Z,101568.02
2018-08-03T05:21:14.942Z,101574.22
2018-08-03T05:23:43.876Z,101579.44
2018-08-03T05:26:12.950Z,101577.23
2018-08-03T05:28:42.607Z,101574.85
2018-08-03T05:31:11.504Z,101576.33
2018-08-03T05:33:40.334Z,101579.48
2018-08-03T05:36:09.324Z,101592.29
2018-08-03T05:38:38.218Z,101585.92
2018-08-03T05:41:07.066Z,101586.25
2018-08-03T05:43:35.909Z,101587.08
2018-08-03T05:46:04.747Z,101597.52
2018-08-03T05:48:33.652Z,101594.66
2018-08-03T05:51:02.531Z,101594.73
2018-08-03T05:53:31.399Z,101599.22
2018-08-03T05:56:00.365Z,101597.90
2018-08-03T05:58:29.409Z,101595.33
2018-08-03T06:00:58.286Z,101594.59
2018-08-03T06:03:27.150Z,101601.35
2018-08-03T06:05:56.760Z,101589.37
2018-08-03T06:08:25.840Z,101589.06
2018-08-03T06:10:54.767Z,101586.78
2018-08-03T06:13:23.605Z,101592.16
2018-08-03T06:15:52.459Z,101593.07
2018-08-03T06:18:21.401Z,101586.81
2018-08-03T06:20:50.245Z,101586.73
2018-08-03T06:23:19.872Z,101593.02
2018-08-03T06:25:49.565Z,101585.48
2018-08-03T06:28:19.202Z,101592.73
2018-08-03T06:30:48.809Z,101595.37
2018-08-03T06:33:18.443Z,101592.39
2018-08-03T06:35:48.101Z,101594.11
2018-08-03T06:38:17.755Z,101596.60
2018-08-03T06:40:47.462Z,101596.53
2018-08-03T06:43:17.046Z,101592.48
2018-08-03T06:45:46.747Z,101595.13
2018-08-03T06:48:16.508Z,101587.09
2018-08-03T06:50:46.156Z,101587.11
2018-08-03T06:53:15.910Z,101586.00
2018-08-03T06:55:45.550Z,101589.70
2018-08-03T06:58:15.298Z,101581.95
2018-08-03T07:00:44.923Z,101579.86
2018-08-03T07:03:14.993Z,101578.28
2018-08-03T07:05:44.625Z,101584.89
2018-08-03T07:08:14.498Z,101579.16
2018-08-03T07:10:44.153Z,101577.64
2018-08-03T07:13:13.781Z,101579.95
2018-08-03T07:15:43.983Z,101577.87
2018-08-03T07:18:13.671Z,101574.90
2018-08-03T07:20:43.435Z,101568.05
2018-08-03T07:23:13.114Z,101567.75
2018-08-03T07:25:42.737Z,101571.53
2018-08-03T07:28:12.362Z,101571.32
2018-08-03T07:30:42.016Z,101575.66
2018-08-03T07:33:11.661Z,101573.25
2018-08-03T07:35:41.278Z,101570.38
2018-08-03T07:38:10.869Z,101568.86
2018-08-03T07:40:40.573Z,101566.91
2018-08-03T07:43:10.230Z,101568.58
2018-08-03T07:45:39.839Z,101571.22
2018-08-03T07:48:09.586Z,101568.16
2018-08-03T07:50:39.221Z,101570.82
2018-08-03T07:53:09.109Z,101567.75
2018-08-03T07:55:38.728Z,101563.36
2018-08-03T07:58:08.399Z,101562.84
2018-08-03T08:00:38.029Z,101555.75
2018-08-03T08:03:07.908Z,101565.69
2018-08-03T08:05:37.557Z,101563.25
2018-08-03T08:08:07.457Z,101562.77
2018-08-03T08:10:37.150Z,101566.21
2018-08-03T08:13:06.867Z,101566.75
2018-08-03T08:15:36.577Z,101565.95
2018-08-03T08:18:06.415Z,101566.81
2018-08-03T08:20:36.018Z,101568.30
2018-08-03T08:23:05.666Z,101565.25
2018-08-03T08:25:35.283Z,101574.70
2018-08-03T08:28:04.965Z,101562.22
2018-08-03T08:30:34.667Z,101568.64
2018-08-03T08:33:04.451Z,101564.23
2018-08-03T08:35:34.194Z,101561.84
2018-08-03T08:38:04.846Z,101563.45
2018-08-03T08:40:34.569Z,101568.63
2018-08-03T08:43:04.370Z,101557.77
2018-08-03T08:45:34.128Z,101561.23
2018-08-03T08:48:04.039Z,101555.04
2018-08-03T08:50:33.716Z,101551.30
2018-08-03T08:53:03.592Z,101554.41
2018-08-03T08:55:33.237Z,101554.05
2018-08-03T08:58:03.252Z,101557.84
2018-08-03T09:00:32.962Z,101553.34
2018-08-03T09:03:03.005Z,101549.39
2018-08-03T09:05:32.629Z,101544.51
2018-08-03T09:08:02.558Z,101537.12
2018-08-03T09:10:32.183Z,101537.91
2018-08-03T09:13:01.900Z,101541.77
2018-08-03T09:15:31.545Z,101543.13
2018-08-03T09:18:01.819Z,101537.64
2018-08-03T09:20:31.911Z,101527.28
2018-08-03T09:23:01.579Z,101532.20
2018-08-03T09:25:38.282Z,101529.44
2018-08-03T09:28:09.432Z,101523.19
2018-08-03T09:30:39.139Z,101524.48
2018-08-03T09:33:08.815Z,101520.42
2018-08-03T09:35:38.570Z,101524.84
2018-08-03T09:38:08.358Z,101520.94
2018-08-03T09:40:38.411Z,101526.75
2018-08-03T09:43:08.350Z,101523.17
2018-08-03T09:45:38.042Z,101516.23
2018-08-03T09:48:07.755Z,101504.15
2018-08-03T09:50:39.533Z,101510.08
2018-08-03T09:53:10.483Z,101504.19
2018-08-03T09:55:42.922Z,101496.23
2018-08-03T09:58:14.797Z,101494.27
2018-08-03T10:00:49.611Z,101489.39
2018-08-03T10:03:19.337Z,101503.25
2018-08-03T10:05:49.065Z,101494.13
2018-08-03T10:08:18.900Z,101489.53
2018-08-03T10:10:48.981Z,101488.31
2018-08-03T10:13:18.689Z,101484.53
2018-08-03T10:15:48.442Z,101492.53
2018-08-03T10:18:18.174Z,101486.98
2018-08-03T10:20:49.421Z,101489.03
2018-08-03T10:23:20.226Z,101476.73
2018-08-03T10:25:51.012Z,101477.42
2018-08-03T10:28:22.203Z,101473.96
2018-08-03T10:30:52.053Z,101474.98
2018-08-03T10:33:21.734Z,101471.79
2018-08-03T10:35:51.501Z,101477.02
2018-08-03T10:38:21.224Z,101478.77
2018-08-03T10:40:50.866Z,101473.75
2018-08-03T10:43:20.639Z,101460.37
2018-08-03T10:45:50.266Z,101457.95
2018-08-03T10:48:19.975Z,101462.25
2018-08-03T10:50:49.605Z,101456.14
2018-08-03T10:53:19.272Z,101455.58
2018-08-03T10:55:49.021Z,101455.07
2018-08-03T10:58:18.693Z,101451.19
2018-08-03T11:00:48.418Z,101444.91
2018-08-03T11:03:18.137Z,101450.44
2018-08-03T11:05:47.838Z,101443.87
2018-08-03T11:08:17.613Z,101442.49
2018-08-03T11:10:47.326Z,101439.22
2018-08-03T11:13:16.934Z,101433.61
2018-08-03T11:15:46.606Z,101442.17
2018-08-03T11:18:16.635Z,101444.47
2018-08-03T11:20:46.280Z,101441.64
2018-08-03T11:23:15.914Z,101438.09
2018-08-03T11:25:45.541Z,101432.05
2018-08-03T11:28:15.219Z,101431.09
2018-08-03T11:30:44.914Z,101437.25
2018-08-03T11:33:14.241Z,101430.37
2018-08-03T11:35:43.907Z,101425.17
2018-08-03T11:38:13.632Z,101427.21
2018-08-03T11:40:43.379Z,101425.34
2018-08-03T11:43:13.062Z,101422.05
2018-08-03T11:45:42.831Z,101421.66
2018-08-03T11:48:12.632Z,101418.80
2018-08-03T11:50:42.336Z,101414.40
2018-08-03T11:53:11.966Z,101412.64
2018-08-03T11:55:41.654Z,101416.56
2018-08-03T11:58:11.343Z,101416.47
2018-08-03T12:00:41.037Z,101417.33
2018-08-03T12:03:10.746Z,101417.66
2018-08-03T12:05:40.455Z,101410.02
2018-08-03T12:08:10.478Z,101402.98
2018-08-03T12:10:46.749Z,101399.69
2018-08-03T12:13:16.569Z,101404.27
2018-08-03T12:15:46.239Z,101397.84
2018-08-03T12:18:16.201Z,101392.95
2018-08-03T12:20:46.971Z,101396.59
2018-08-03T12:23:16.617Z,101388.84
2018-08-03T12:25:46.313Z,101387.87
2018-08-03T12:28:16.022Z,101388.67
2018-08-03T12:30:45.693Z,101384.38
2018-08-03T12:33:15.430Z,101390.84
2018-08-03T12:35:45.090Z,101387.30
2018-08-03T12:38:14.759Z,101379.19
2018-08-03T12:40:44.408Z,101376.09
2018-08-03T12:43:14.128Z,101370.98
2018-08-03T12:45:43.773Z,101369.52
2018-08-03T12:48:13.497Z,101361.80
2018-08-03T12:50:43.245Z,101359.97
2018-08-03T12:53:12.830Z,101357.84
2018-08-03T12:55:42.535Z,101355.63
2018-08-03T12:58:12.254Z,101351.19
2018-08-03T13:00:42.013Z,101347.72
2018-08-03T13:03:11.743Z,101351.49
2018-08-03T13:05:41.485Z,101355.93
2018-08-03T13:08:11.389Z,101348.97
2018-08-03T13:10:41.111Z,101343.46
2018-08-03T13:13:10.894Z,101344.81
2018-08-03T13:15:40.741Z,101339.13
2018-08-03T13:18:10.421Z,101344.43
2018-08-03T13:20:40.154Z,101335.56
2018-08-03T13:23:09.858Z,101343.46
2018-08-03T13:25:39.609Z,101335.84
2018-08-03T13:28:09.344Z,101332.95
2018-08-03T13:30:39.084Z,101333.23
2018-08-03T13:33:08.830Z,101320.59
2018-08-03T13:35:38.446Z,101324.72
2018-08-03T13:38:08.606Z,101321.37
2018-08-03T13:40:38.458Z,101326.27
2018-08-03T13:43:08.216Z,101320.27
2018-08-03T13:45:37.873Z,101314.58
2018-08-03T13:48:07.656Z,101307.61
2018-08-03T13:50:37.432Z,101300.86
2018-08-03T13:53:07.526Z,101293.75
2018-08-03T13:55:37.220Z,101290.03
2018-08-03T13:58:06.908Z,101288.02
2018-08-03T14:00:36.594Z,101287.73
2018-08-03T14:03:06.386Z,101280.38
2018-08-03T14:05:36.084Z,101279.62
2018-08-03T14:08:05.865Z,101281.08
2018-08-03T14:10:35.550Z,101275.77
2018-08-03T14:13:05.316Z,101272.37
2018-08-03T14:15:35.016Z,101265.73
2018-08-03T14:18:04.716Z,101273.13
2018-08-03T14:20:34.444Z,101269.57
2018-08-03T14:23:04.178Z,101257.72
2018-08-03T14:25:33.990Z,101269.64
2018-08-03T14:28:03.659Z,101257.69
2018-08-03T14:30:33.445Z,101257.20
2018-08-03T14:33:03.177Z,101252.17
2018-08-03T14:35:32.849Z,101253.28
2018-08-03T14:38:02.558Z,101249.12
2018-08-03T14:40:32.254Z,101259.55
2018-08-03T14:43:02.065Z,101242.59
2018-08-03T14:45:31.810Z,101241.87
2018-08-03T14:48:01.524Z,101233.54
2018-08-03T14:50:31.266Z,101238.55
2018-08-03T14:53:01.075Z,101236.61
2018-08-03T14:55:30.864Z,101229.95
2018-08-03T14:58:00.541Z,101229.84
2018-08-03T15:00:30.268Z,101216.43
2018-08-03T15:03:00.024Z,101217.41
2018-08-03T15:05:29.735Z,101216.91
2018-08-03T15:07:59.525Z,101213.13
2018-08-03T15:10:29.787Z,101208.82
2018-08-03T15:12:59.534Z,101209.63
2018-08-03T15:15:29.378Z,101201.53
2018-08-03T15:17:59.058Z,101202.77
2018-08-03T15:20:28.768Z,101206.34
2018-08-03T15:22:58.463Z,101210.19
2018-08-03T15:25:28.689Z,101200.94
2018-08-03T15:27:58.353Z,101200.70
2018-08-03T15:30:27.999Z,101201.80
2018-08-03T15:32:57.648Z,101196.37
2018-08-03T15:35:27.225Z,101195.89
2018-08-03T15:37:57.123Z,101198.70
2018-08-03T15:40:26.764Z,101195.72
2018-08-03T15:42:56.467Z,101192.31
2018-08-03T15:45:26.319Z,101191.09
2018-08-03T15:47:55.977Z,101190.11
2018-08-03T15:50:25.634Z,101188.00
2018-08-03T15:52:55.281Z,101181.22
2018-08-03T15:55:25.614Z,101188.20
2018-08-03T15:57:55.338Z,101185.23
2018-08-03T16:00:24.933Z,101184.25
2018-08-03T16:02:54.562Z,101183.50
2018-08-03T16:05:24.186Z,101181.88
2018-08-03T16:07:53.794Z,101175.47
2018-08-03T16:10:23.122Z,101170.44
2018-08-03T16:12:52.778Z,101167.14
2018-08-03T16:15:22.326Z,101170.19
2018-08-03T16:17:52.107Z,101170.95
2018-08-03T16:20:21.946Z,101173.16
2018-08-03T16:22:51.594Z,101171.44
2018-08-03T16:25:21.266Z,101166.30
2018-08-03T16:27:50.938Z,101167.64
2018-08-03T16:30:20.558Z,101166.78
2018-08-03T16:32:50.242Z,101166.41
2018-08-03T16:35:19.974Z,101161.59
2018-08-03T16:37:49.667Z,101153.72
2018-08-03T16:40:19.282Z,101159.24
2018-08-03T16:42:48.949Z,101156.08
2018-08-03T16:45:18.590Z,101150.27
2018-08-03T16:47:48.201Z,101147.13
2018-08-03T16:50:17.921Z,101148.81
2018-08-03T16:52:47.974Z,101145.48
2018-08-03T16:55:17.597Z,101144.84
2018-08-03T16:57:47.266Z,101144.08
2018-08-03T17:00:18.653Z,101139.24
2018-08-03T17:02:49.066Z,101137.18
2018-08-03T17:05:18.690Z,101130.78
2018-08-03T17:07:48.337Z,101132.17
2018-08-03T17:10:17.930Z,101130.52
2018-08-03T17:12:47.551Z,101136.83
2018-08-03T17:15:17.198Z,101126.57
2018-08-03T17:17:46.974Z,101133.73
2018-08-03T17:20:16.332Z,101126.56
2018-08-03T17:22:46.106Z,101122.44
2018-08-03T17:25:15.782Z,101127.88
2018-08-03T17:27:45.433Z,101123.26
2018-08-03T17:30:15.387Z,101122.22
2018-08-03T17:32:45.030Z,101117.73
2018-08-03T17:35:14.686Z,101123.54
2018-08-03T17:37:44.392Z,101128.02
2018-08-03T17:40:14.046Z,101118.50
2018-08-03T17:42:43.713Z,101121.69
2018-08-03T17:45:13.344Z,101122.13
2018-08-03T17:47:42.946Z,101124.70
2018-08-03T17:50:12.582Z,101125.70
2018-08-03T17:52:42.287Z,101124.85
2018-08-03T17:55:11.895Z,101130.28
2018-08-03T17:57:41.481Z,101128.06
2018-08-03T18:00:11.316Z,101132.15
2018-08-03T18:02:40.934Z,101133.40
2018-08-03T18:05:10.519Z,101133.91
2018-08-03T18:07:40.143Z,101137.05
2018-08-03T18:10:10.246Z,101134.85
2018-08-03T18:12:39.887Z,101136.19
2018-08-03T18:15:10.413Z,101138.90
2018-08-03T18:17:40.025Z,101136.67
2018-08-03T18:20:09.641Z,101145.34
2018-08-03T18:22:39.342Z,101146.37
2018-08-03T18:25:08.966Z,101152.59
2018-08-03T18:27:38.644Z,101149.88
2018-08-03T18:30:08.557Z,101144.88
2018-08-03T18:32:38.138Z,101147.16
2018-08-03T18:35:07.881Z,101146.86
2018-08-03T18:37:37.708Z,101153.28
2018-08-03T18:40:10.490Z,101149.85
2018-08-03T18:42:40.400Z,101147.60
2018-08-03T18:45:10.085Z,101157.75
2018-08-03T18:47:39.690Z,101162.16
2018-08-03T18:50:09.342Z,101156.65
2018-08-03T18:52:40.047Z,101162.28
2018-08-03T18:55:09.603Z,101164.09
2018-08-03T18:57:39.235Z,101164.11
2018-08-03T19:00:10.691Z,101178.41
2018-08-03T19:02:40.372Z,101167.50
2018-08-03T19:05:10.269Z,101169.73
2018-08-03T19:07:39.850Z,101176.95
2018-08-03T19:10:09.424Z,101178.73
2018-08-03T19:12:39.046Z,101177.41
2018-08-03T19:15:09.167Z,101178.23
2018-08-03T19:17:38.930Z,101183.61
2018-08-03T19:20:09.094Z,101176.37
2018-08-03T19:22:39.227Z,101180.33
2018-08-03T19:25:08.970Z,101178.03
2018-08-03T19:27:38.694Z,101181.50
2018-08-03T19:30:08.479Z,101176.87
2018-08-03T19:32:38.115Z,101178.44
2018-08-03T19:35:07.754Z,101171.02
2018-08-03T19:37:37.387Z,101178.47
2018-08-03T19:40:07.718Z,101171.27
2018-08-03T19:42:37.293Z,101177.26
2018-08-03T19:45:08.687Z,101168.13
2018-08-03T19:47:39.131Z,101176.80
2018-08-03T19:50:09.749Z,101170.00
2018-08-03T19:52:39.138Z,101173.33
2018-08-03T19:55:08.763Z,101174.47
2018-08-03T19:57:38.164Z,101175.09
2018-08-03T20:00:11.111Z,101172.66
2018-08-03T20:02:40.930Z,101177.92
2018-08-03T20:05:10.649Z,101175.13
2018-08-03T20:07:40.296Z,101173.25
2018-08-03T20:10:10.010Z,101171.18
2018-08-03T20:12:39.646Z,101174.01
2018-08-03T20:15:09.414Z,101179.69
2018-08-03T20:17:39.188Z,101173.27
2018-08-03T20:20:08.801Z,101176.49
2018-08-03T20:22:38.514Z,101174.45
2018-08-03T20:25:08.316Z,101177.42
2018-08-03T20:27:37.641Z,101174.05
2018-08-03T20:30:27.943Z,101180.99
2018-08-03T20:32:57.563Z,101184.61
2018-08-03T20:35:27.166Z,101186.89
2018-08-03T20:38:03.515Z,101176.17
2018-08-03T20:40:33.142Z,101182.47
2018-08-03T20:43:02.847Z,101176.37
2018-08-03T20:45:32.177Z,101174.31
2018-08-03T20:48:01.971Z,101176.03
2018-08-03T20:50:31.604Z,101171.81
2018-08-03T20:53:01.262Z,101178.41
2018-08-03T20:55:31.065Z,101179.62
2018-08-03T20:58:00.768Z,101183.37
2018-08-03T21:00:30.442Z,101183.13
2018-08-03T21:03:00.183Z,101190.30
2018-08-03T21:05:29.847Z,101189.49
2018-08-03T21:07:59.536Z,101193.91
2018-08-03T21:10:29.201Z,101195.78
2018-08-03T21:12:58.850Z,101190.03
2018-08-03T21:15:28.476Z,101190.73
2018-08-03T21:17:58.146Z,101185.66
2018-08-03T21:20:27.834Z,101190.75
2018-08-03T21:22:57.490Z,101197.27
2018-08-03T21:25:27.142Z,101188.96
2018-08-03T21:27:56.806Z,101192.30
2018-08-03T21:30:26.443Z,101192.13
2018-08-03T21:32:56.405Z,101190.97
2018-08-03T21:35:26.091Z,101184.34
2018-08-03T21:37:55.733Z,101188.08
2018-08-03T21:40:25.422Z,101187.90
2018-08-03T21:42:55.054Z,101186.28
2018-08-03T21:45:24.795Z,101183.67
2018-08-03T21:47:54.756Z,101184.73
2018-08-03T21:50:24.370Z,101188.87
2018-08-03T21:52:54.275Z,101174.38
2018-08-03T21:55:23.974Z,101177.11
2018-08-03T21:57:53.650Z,101175.92
2018-08-03T22:00:24.017Z,101178.78
2018-08-03T22:02:53.778Z,101180.68
2018-08-03T22:05:23.626Z,101175.45
2018-08-03T22:07:53.225Z,101171.97
2018-08-03T22:10:22.998Z,101170.63
2018-08-03T22:12:58.769Z,101175.98
2018-08-03T22:15:28.449Z,101170.70
2018-08-03T22:17:58.158Z,101176.10
2018-08-03T22:20:27.909Z,101167.27
2018-08-03T22:22:57.564Z,101178.89
2018-08-03T22:25:27.259Z,101171.55
2018-08-03T22:27:57.108Z,101174.23
2018-08-03T22:30:26.811Z,101170.28
2018-08-03T22:32:56.553Z,101169.06
2018-08-03T22:35:26.165Z,101171.39
2018-08-03T22:37:55.792Z,101166.16
2018-08-03T22:40:25.585Z,101163.64
2018-08-03T22:42:55.450Z,101162.42
2018-08-03T22:45:25.179Z,101163.83
2018-08-03T22:47:54.840Z,101158.13
2018-08-03T22:50:24.490Z,101154.64
2018-08-03T22:52:54.278Z,101146.75
2018-08-03T22:55:23.913Z,101149.48
2018-08-03T22:57:53.629Z,101147.83
2018-08-03T23:00:23.459Z,101151.43
2018-08-03T23:02:53.160Z,101150.16
2018-08-03T23:05:22.522Z,101147.54
2018-08-03T23:07:52.499Z,101153.93
2018-08-03T23:10:22.254Z,101147.48
2018-08-03T23:12:52.119Z,101154.73
2018-08-03T23:15:21.758Z,101158.34
2018-08-03T23:17:51.500Z,101147.83
2018-08-03T23:20:21.175Z,101144.55
2018-08-03T23:22:51.146Z,101148.31
2018-08-03T23:25:20.840Z,101143.61
2018-08-03T23:27:50.595Z,101137.08
2018-08-03T23:30:20.253Z,101134.00
2018-08-03T23:32:49.859Z,101131.91
2018-08-03T23:35:19.493Z,101134.28
2018-08-03T23:37:49.130Z,101130.59
2018-08-03T23:40:18.838Z,101130.34
2018-08-03T23:42:48.490Z,101127.05
2018-08-03T23:45:18.283Z,101124.61
2018-08-03T23:47:47.935Z,101119.97
2018-08-03T23:50:18.514Z,101121.96
2018-08-03T23:52:49.292Z,101122.64
2018-08-03T23:55:19.190Z,101118.47
2018-08-03T23:57:48.762Z,101116.37
